Time;durP1;ratioP1;P1;durP2;ratioP2;P2;SDS_P1;SDS_P2;PMS_P1;PMS_P2;Temp;Humidity;BMP_temperature;BMP_pressure;BME280_temperature;BME280_humidity;BME280_pressure;Samples;Min_cycle;Max_cycle;Signal;HPM_P1;HPM_P2
2021/03/31 00:00:24;;;;;;;12.95;3.95;;;28.60;18.30;;;;;;1041566;28;20033;-74
2021/03/31 00:00:56;;;;;;;10.57;3.45;;;28.60;18.50;;;;;;1041879;28;20021;-74
2021/03/31 00:01:27;;;;;;;9.35;3.65;;;28.60;18.60;;;;;;1042582;28;20045;-74
2021/03/31 00:01:59;;;;;;;11.35;3.60;;;28.60;18.50;;;;;;1042699;28;20021;-74
2021/03/31 00:02:30;;;;;;;12.02;3.30;;;28.60;18.50;;;;;;1040771;28;20060;-74
2021/03/31 00:03:06;;;;;;;10.88;3.30;;;28.60;18.30;;;;;;1042911;28;20017;-74
2021/03/31 00:03:38;;;;;;;8.00;3.10;;;28.60;18.60;;;;;;1037361;28;20497;-74
2021/03/31 00:04:09;;;;;;;9.80;3.17;;;28.60;18.50;;;;;;1033366;28;20021;-74
2021/03/31 00:04:41;;;;;;;11.70;3.53;;;28.60;18.90;;;;;;1039943;28;20105;-73
2021/03/31 00:05:13;;;;;;;8.60;4.00;;;28.60;19.40;;;;;;1037107;28;20060;-73
2021/03/31 00:05:44;;;;;;;10.73;3.72;;;28.60;19.50;;;;;;1038196;28;20026;-74
2021/03/31 00:06:16;;;;;;;8.73;3.20;;;28.60;20.30;;;;;;1038542;28;20018;-74
2021/03/31 00:06:48;;;;;;;10.30;3.50;;;28.60;19.60;;;;;;1037784;28;20033;-74
2021/03/31 00:07:19;;;;;;;10.90;3.50;;;28.60;19.50;;;;;;1036651;28;20037;-74
2021/03/31 00:07:51;;;;;;;9.77;3.45;;;28.70;19.90;;;;;;1035763;28;20041;-75
2021/03/31 00:08:22;;;;;;;12.30;3.55;;;28.70;20.10;;;;;;1037050;28;20451;-74
2021/03/31 00:08:53;;;;;;;8.93;3.50;;;28.70;19.70;;;;;;1041927;28;20053;-73
2021/03/31 00:09:25;;;;;;;9.07;3.40;;;28.70;19.80;;;;;;1042633;28;20117;-74
2021/03/31 00:09:56;;;;;;;8.25;3.30;;;28.70;19.80;;;;;;1043120;28;20021;-74
2021/03/31 00:10:33;;;;;;;12.38;3.50;;;28.70;19.90;;;;;;1043826;28;20029;-74
2021/03/31 00:11:05;;;;;;;9.55;3.85;;;28.60;20.00;;;;;;1038961;28;20026;-73
2021/03/31 00:11:37;;;;;;;14.00;3.67;;;28.60;20.40;;;;;;1039743;28;20036;-74
2021/03/31 00:12:09;;;;;;;18.10;3.60;;;28.60;20.50;;;;;;1038840;28;20478;-74
2021/03/31 00:12:40;;;;;;;11.05;3.75;;;28.60;19.90;;;;;;1038500;28;20021;-74
2021/03/31 00:13:13;;;;;;;12.20;3.53;;;28.50;19.90;;;;;;1039459;28;20348;-75
2021/03/31 00:13:45;;;;;;;10.75;3.78;;;28.50;19.90;;;;;;1037572;28;20029;-74
2021/03/31 00:14:17;;;;;;;10.90;3.55;;;28.50;20.20;;;;;;1042864;28;20026;-74
2021/03/31 00:14:49;;;;;;;10.65;3.75;;;28.40;20.50;;;;;;1041406;28;20383;-74
2021/03/31 00:15:21;;;;;;;15.68;3.95;;;28.40;20.90;;;;;;1041329;28;20025;-73
2021/03/31 00:15:53;;;;;;;12.63;3.83;;;28.40;21.30;;;;;;1038675;28;20033;-74
2021/03/31 00:16:24;;;;;;;11.25;3.95;;;28.30;21.60;;;;;;1033082;28;20034;-74
2021/03/31 00:16:56;;;;;;;14.70;3.70;;;28.30;21.70;;;;;;1035981;28;20025;-74
2021/03/31 00:17:27;;;;;;;12.55;3.70;;;28.30;21.50;;;;;;1034563;28;20042;-73
2021/03/31 00:17:59;;;;;;;10.02;3.38;;;28.30;21.30;;;;;;1033570;28;20026;-74
2021/03/31 00:18:31;;;;;;;10.85;3.75;;;28.30;21.20;;;;;;1037457;28;20470;-74
2021/03/31 00:19:02;;;;;;;11.93;4.13;;;28.30;21.30;;;;;;1039505;28;20060;-75
2021/03/31 00:19:34;;;;;;;15.30;3.95;;;28.30;21.50;;;;;;1036718;28;20105;-73
2021/03/31 00:20:06;;;;;;;10.38;3.75;;;28.30;21.70;;;;;;1036621;28;20034;-74
2021/03/31 00:20:38;;;;;;;11.23;3.85;;;28.20;21.30;;;;;;1037834;28;20537;-74
2021/03/31 00:21:10;;;;;;;9.60;3.60;;;28.20;21.30;;;;;;1037898;28;20110;-74
2021/03/31 00:21:41;;;;;;;15.18;3.78;;;28.20;21.20;;;;;;1038881;28;20680;-74
2021/03/31 00:22:12;;;;;;;9.23;3.60;;;28.10;21.20;;;;;;1040621;28;20052;-73
2021/03/31 00:22:45;;;;;;;11.07;3.72;;;28.10;21.40;;;;;;1038783;28;20064;-74
2021/03/31 00:23:19;;;;;;;11.05;3.95;;;28.10;21.70;;;;;;1037752;28;20340;-74
2021/03/31 00:23:51;;;;;;;15.45;3.92;;;28.10;22.00;;;;;;1038351;28;20766;-74
2021/03/31 00:24:23;;;;;;;11.13;4.25;;;28.10;22.30;;;;;;1044204;28;20021;-75
2021/03/31 00:24:54;;;;;;;12.30;4.03;;;28.00;22.20;;;;;;1045973;28;20027;-75
2021/03/31 00:25:26;;;;;;;10.43;4.00;;;27.90;22.40;;;;;;1045038;28;20154;-73
2021/03/31 00:25:58;;;;;;;14.15;4.18;;;28.00;22.40;;;;;;1043730;28;20016;-75
2021/03/31 00:26:29;;;;;;;14.35;4.10;;;27.90;22.20;;;;;;1041248;28;20412;-74
2021/03/31 00:27:01;;;;;;;10.90;3.78;;;27.90;22.30;;;;;;1041955;28;20018;-76
2021/03/31 00:27:32;;;;;;;11.77;3.35;;;27.90;22.10;;;;;;1042046;28;20049;-73
2021/03/31 00:28:04;;;;;;;10.80;4.28;;;27.80;22.10;;;;;;1039021;28;20084;-74
2021/03/31 00:28:36;;;;;;;10.48;3.75;;;27.80;22.20;;;;;;1043130;28;20394;-75
2021/03/31 00:29:07;;;;;;;13.25;3.80;;;27.80;22.00;;;;;;1041310;28;20041;-74
2021/03/31 00:29:39;;;;;;;12.73;3.80;;;27.70;21.90;;;;;;1043598;28;20083;-74
2021/03/31 00:30:13;;;;;;;9.80;3.65;;;27.70;22.00;;;;;;1041729;28;20025;-72
2021/03/31 00:30:45;;;;;;;11.05;3.83;;;27.60;22.00;;;;;;1038204;28;20034;-75
2021/03/31 00:31:17;;;;;;;12.07;4.05;;;27.50;22.20;;;;;;1038597;28;20041;-74
2021/03/31 00:31:50;;;;;;;13.55;3.70;;;27.50;22.10;;;;;;1039512;28;20029;-72
2021/03/31 00:32:21;;;;;;;10.55;3.65;;;27.50;22.20;;;;;;1038667;28;20431;-75
2021/03/31 00:32:53;;;;;;;10.15;3.78;;;27.40;22.40;;;;;;1039373;28;20056;-73
2021/03/31 00:33:24;;;;;;;10.23;3.80;;;27.40;22.20;;;;;;1037875;28;20447;-74
2021/03/31 00:33:56;;;;;;;12.73;3.85;;;27.40;22.40;;;;;;1042612;28;20503;-75
2021/03/31 00:34:27;;;;;;;11.43;3.65;;;27.30;22.60;;;;;;1043310;28;20455;-75
2021/03/31 00:34:58;;;;;;;10.05;3.30;;;27.30;22.60;;;;;;1043213;28;20017;-74
2021/03/31 00:35:30;;;;;;;10.38;3.40;;;27.30;22.50;;;;;;1039666;28;20030;-75
2021/03/31 00:36:02;;;;;;;14.77;3.83;;;27.30;22.30;;;;;;1039483;28;20025;-75
2021/03/31 00:36:33;;;;;;;11.60;3.33;;;27.30;22.20;;;;;;1039762;28;20029;-76
2021/03/31 00:37:05;;;;;;;11.52;3.75;;;27.30;22.20;;;;;;1039655;28;20022;-76
2021/03/31 00:37:37;;;;;;;9.27;3.58;;;27.30;22.30;;;;;;1038013;28;20017;-75
2021/03/31 00:38:10;;;;;;;11.88;3.70;;;27.30;22.40;;;;;;1038385;28;20033;-76
2021/03/31 00:38:41;;;;;;;10.80;3.85;;;27.20;22.30;;;;;;1039941;28;20017;-76
2021/03/31 00:39:13;;;;;;;9.55;3.50;;;27.20;22.40;;;;;;1038491;28;20463;-73
2021/03/31 00:39:44;;;;;;;13.95;3.80;;;27.10;22.50;;;;;;1036450;28;20033;-74
2021/03/31 00:40:18;;;;;;;11.20;3.95;;;27.10;22.40;;;;;;1037707;28;20033;-74
2021/03/31 00:40:52;;;;;;;11.00;3.80;;;27.10;22.60;;;;;;1038020;28;20525;-74
2021/03/31 00:41:23;;;;;;;9.32;3.70;;;27.00;22.70;;;;;;1040103;28;20113;-74
2021/03/31 00:41:55;;;;;;;11.43;3.97;;;27.00;22.80;;;;;;1042383;28;20075;-74
2021/03/31 00:42:26;;;;;;;9.63;3.80;;;26.90;23.00;;;;;;1040623;28;20033;-74
2021/03/31 00:42:57;;;;;;;14.07;4.00;;;26.90;23.00;;;;;;1039229;28;20026;-74
2021/03/31 00:43:29;;;;;;;9.52;3.53;;;26.90;22.90;;;;;;1037463;28;20467;-74
2021/03/31 00:44:00;;;;;;;11.82;4.03;;;26.80;23.00;;;;;;1030956;28;20022;-74
2021/03/31 00:44:32;;;;;;;10.20;4.00;;;26.90;23.20;;;;;;1029704;28;20550;-75
2021/03/31 00:45:06;;;;;;;13.32;3.80;;;26.80;23.20;;;;;;1032165;28;20120;-74
2021/03/31 00:45:38;;;;;;;9.95;3.67;;;26.80;23.20;;;;;;1030824;28;20023;-74
2021/03/31 00:46:10;;;;;;;9.65;3.47;;;26.80;23.00;;;;;;1039706;28;20040;-74
2021/03/31 00:46:41;;;;;;;6.95;3.08;;;26.70;22.90;;;;;;1042210;28;20021;-74
2021/03/31 00:47:12;;;;;;;10.05;3.65;;;26.70;23.30;;;;;;1041335;28;20025;-74
2021/03/31 00:47:44;;;;;;;8.32;3.50;;;26.70;23.20;;;;;;1041399;28;20174;-74
2021/03/31 00:48:16;;;;;;;12.23;3.72;;;26.70;23.40;;;;;;1038188;28;20376;-75
2021/03/31 00:48:47;;;;;;;10.18;3.50;;;26.60;23.40;;;;;;1033981;28;20111;-75
2021/03/31 00:49:18;;;;;;;11.82;3.97;;;26.70;23.50;;;;;;1030937;28;20023;-74
2021/03/31 00:49:50;;;;;;;9.93;3.60;;;26.70;23.30;;;;;;1031124;28;20019;-74
2021/03/31 00:50:21;;;;;;;12.57;3.38;;;26.60;23.10;;;;;;1035236;28;20015;-75
2021/03/31 00:50:58;;;;;;;9.73;3.38;;;26.60;23.10;;;;;;1038711;28;20110;-74
2021/03/31 00:51:30;;;;;;;10.73;3.58;;;26.70;23.00;;;;;;1037228;28;20408;-73
2021/03/31 00:52:03;;;;;;;8.98;3.40;;;26.60;22.90;;;;;;1034400;28;20444;-73
2021/03/31 00:52:35;;;;;;;9.95;3.40;;;26.60;22.90;;;;;;1034609;28;20014;-75
2021/03/31 00:53:06;;;;;;;10.75;3.53;;;26.60;22.90;;;;;;1035649;28;20026;-74
2021/03/31 00:53:41;;;;;;;9.93;3.47;;;26.60;22.90;;;;;;1038067;28;20029;-73
2021/03/31 00:54:13;;;;;;;8.68;3.42;;;26.60;22.70;;;;;;1040985;28;20495;-76
2021/03/31 00:54:45;;;;;;;11.25;3.60;;;26.50;22.40;;;;;;1041181;28;20027;-74
2021/03/31 00:55:19;;;;;;;9.73;3.30;;;26.60;22.50;;;;;;1039146;28;20059;-74
2021/03/31 00:55:51;;;;;;;8.45;3.55;;;26.60;22.50;;;;;;1038252;28;20028;-74
2021/03/31 00:56:22;;;;;;;11.60;3.47;;;26.50;22.50;;;;;;1041195;28;20455;-74
2021/03/31 00:56:54;;;;;;;9.82;3.55;;;26.50;22.60;;;;;;1042485;28;20021;-74
2021/03/31 00:57:26;;;;;;;9.68;3.47;;;26.50;22.30;;;;;;1042352;28;20033;-74
2021/03/31 00:57:58;;;;;;;10.68;3.30;;;26.50;22.00;;;;;;1042775;28;20478;-74
2021/03/31 00:58:30;;;;;;;8.10;3.30;;;26.50;22.00;;;;;;1041144;28;20090;-74
2021/03/31 00:59:02;;;;;;;7.38;3.03;;;26.50;22.10;;;;;;1038731;28;20481;-74
2021/03/31 00:59:33;;;;;;;8.77;3.38;;;26.40;22.20;;;;;;1038935;28;20049;-74
2021/03/31 01:00:06;;;;;;;11.05;3.20;;;26.40;22.40;;;;;;1034296;28;20050;-74
2021/03/31 01:00:38;;;;;;;10.77;3.42;;;26.40;22.10;;;;;;1037560;28;20080;-74
2021/03/31 01:01:10;;;;;;;9.77;3.13;;;26.30;22.20;;;;;;1033728;28;20079;-75
2021/03/31 01:01:41;;;;;;;11.90;3.42;;;26.30;22.30;;;;;;1036371;28;20065;-74
2021/03/31 01:02:13;;;;;;;11.93;3.58;;;26.30;22.00;;;;;;1037476;28;20528;-74
2021/03/31 01:02:44;;;;;;;6.95;3.08;;;26.30;22.10;;;;;;1036760;28;20009;-74
2021/03/31 01:03:16;;;;;;;11.05;3.33;;;26.30;22.10;;;;;;1036967;28;20014;-75
2021/03/31 01:03:48;;;;;;;10.23;3.72;;;26.30;22.10;;;;;;1036736;28;20056;-75
2021/03/31 01:04:19;;;;;;;7.60;2.97;;;26.30;22.00;;;;;;1039062;28;20093;-74
2021/03/31 01:04:51;;;;;;;8.50;3.30;;;26.30;22.20;;;;;;1035854;28;20014;-74
2021/03/31 01:05:25;;;;;;;7.03;3.00;;;26.30;22.20;;;;;;1039142;28;20452;-74
2021/03/31 01:05:56;;;;;;;10.27;3.40;;;26.30;22.10;;;;;;1042419;28;20431;-74
2021/03/31 01:06:28;;;;;;;10.40;3.35;;;26.30;22.20;;;;;;1040967;28;20340;-74
2021/03/31 01:06:59;;;;;;;10.45;5.20;;;26.30;22.10;;;;;;1042416;28;20013;-75
2021/03/31 01:07:31;;;;;;;8.40;3.75;;;26.30;22.30;;;;;;1041025;28;20013;-75
2021/03/31 01:08:03;;;;;;;9.35;3.60;;;26.30;22.40;;;;;;1042266;28;20075;-73
2021/03/31 01:08:34;;;;;;;8.90;3.22;;;26.30;22.40;;;;;;1038620;28;20443;-74
2021/03/31 01:09:06;;;;;;;8.25;3.40;;;26.30;22.50;;;;;;1037093;28;20093;-74
2021/03/31 01:09:38;;;;;;;7.95;3.25;;;26.30;22.20;;;;;;1038029;28;20014;-73
2021/03/31 01:10:11;;;;;;;8.85;3.30;;;26.30;22.20;;;;;;1037559;28;20033;-73
2021/03/31 01:10:45;;;;;;;8.48;3.10;;;26.30;22.10;;;;;;1039506;28;20521;-74
2021/03/31 01:11:29;;;;;;;9.15;3.10;;;26.30;21.90;;;;;;1034507;28;20014;-73
2021/03/31 01:12:00;;;;;;;8.73;3.10;;;26.30;22.00;;;;;;1035923;28;20014;-73
2021/03/31 01:12:43;;;;;;;7.05;3.15;;;26.30;21.70;;;;;;1038245;28;20364;-73
2021/03/31 01:13:36;;;;;;;11.70;3.30;;;26.30;22.00;;;;;;1040932;28;20013;-74
2021/03/31 01:14:25;;;;;;;8.50;3.00;;;26.30;21.90;;;;;;1042116;28;20017;-73
2021/03/31 01:15:12;;;;;;;7.82;3.00;;;26.30;21.20;;;;;;1038908;28;20137;-74
2021/03/31 01:16:00;;;;;;;8.38;2.95;;;26.30;21.20;;;;;;1037957;28;20069;-74
2021/03/31 01:16:44;;;;;;;11.13;3.42;;;26.30;21.30;;;;;;1037984;28;20352;-74
2021/03/31 01:17:35;;;;;;;8.18;2.95;;;26.30;21.70;;;;;;1038354;28;20025;-74
2021/03/31 01:18:34;;;;;;;8.43;3.28;;;26.20;21.50;;;;;;1033184;28;20022;-74
2021/03/31 01:19:44;;;;;;;9.82;3.28;;;26.20;21.40;;;;;;1032712;28;20061;-73
2021/03/31 01:20:42;;;;;;;7.80;2.83;;;26.10;21.70;;;;;;1033504;28;20030;-74
2021/03/31 01:21:40;;;;;;;6.68;2.75;;;26.00;21.50;;;;;;1038425;28;20033;-74
2021/03/31 01:22:39;;;;;;;11.32;3.75;;;26.00;21.70;;;;;;1041193;28;20108;-73
2021/03/31 01:23:41;;;;;;;11.13;3.10;;;25.90;21.80;;;;;;1042677;28;20029;-74
2021/03/31 01:24:30;;;;;;;8.90;3.22;;;25.90;22.00;;;;;;1042646;28;20115;-73
2021/03/31 01:25:16;;;;;;;8.60;3.28;;;25.80;23.20;;;;;;1038392;28;20495;-74
2021/03/31 01:26:11;;;;;;;11.95;3.38;;;25.70;22.30;;;;;;1037761;28;20026;-74
2021/03/31 01:26:52;;;;;;;9.77;3.40;;;25.60;22.50;;;;;;1038515;28;20113;-73
2021/03/31 01:27:37;;;;;;;13.27;3.25;;;25.60;22.90;;;;;;1032639;28;20026;-73
2021/03/31 01:29:05;;;;;;;10.32;3.25;;;25.60;23.20;;;;;;1033915;28;20022;-74
2021/03/31 01:30:08;;;;;;;8.90;3.05;;;25.50;23.20;;;;;;1032416;28;20069;-74
2021/03/31 01:31:00;;;;;;;11.52;3.40;;;25.50;23.30;;;;;;1034412;28;20026;-73
2021/03/31 01:31:31;;;;;;;9.60;3.40;;;25.50;23.60;;;;;;1030095;28;20181;-74
2021/03/31 01:32:34;;;;;;;10.00;3.20;;;25.40;23.40;;;;;;1030013;28;20026;-73
2021/03/31 01:33:50;;;;;;;9.60;3.30;;;25.40;23.20;;;;;;1012062;29;20048;-74
2021/03/31 01:34:37;;;;;;;9.95;3.03;;;25.40;23.20;;;;;;1012601;29;20375;-74
2021/03/31 01:35:11;;;;;;;9.43;3.00;;;25.30;23.30;;;;;;1030688;28;20114;-73
2021/03/31 01:35:43;;;;;;;9.40;3.03;;;25.30;23.50;;;;;;1038285;28;20085;-74
2021/03/31 01:36:17;;;;;;;6.50;2.83;;;25.20;23.30;;;;;;1034417;28;20353;-73
2021/03/31 01:36:51;;;;;;;8.10;3.40;;;25.20;23.20;;;;;;1035235;28;20018;-74
2021/03/31 01:37:34;;;;;;;8.32;3.05;;;25.20;23.10;;;;;;1033811;28;20030;-74
2021/03/31 01:38:10;;;;;;;9.02;3.10;;;25.20;23.00;;;;;;1033389;28;20030;-73
2021/03/31 01:38:51;;;;;;;8.65;3.20;;;25.10;22.90;;;;;;1034580;28;20091;-73
2021/03/31 01:39:24;;;;;;;10.30;3.20;;;25.10;23.00;;;;;;1038825;28;20022;-74
2021/03/31 01:39:58;;;;;;;12.63;3.53;;;25.10;23.00;;;;;;1040759;28;20022;-74
2021/03/31 01:40:31;;;;;;;9.02;3.30;;;25.10;23.10;;;;;;1037903;28;20026;-73
2021/03/31 01:41:03;;;;;;;8.75;3.15;;;25.00;23.10;;;;;;1037858;28;20046;-74
2021/03/31 01:41:37;;;;;;;11.07;3.65;;;25.10;23.20;;;;;;1037845;28;20022;-73
2021/03/31 01:42:10;;;;;;;8.95;3.42;;;25.10;23.20;;;;;;1041583;28;20093;-74
2021/03/31 01:42:59;;;;;;;11.88;3.50;;;25.10;23.10;;;;;;1041880;28;20010;-74
2021/03/31 01:43:32;;;;;;;8.90;3.33;;;25.00;23.10;;;;;;1034829;28;20041;-73
2021/03/31 01:44:08;;;;;;;10.13;3.53;;;25.00;23.30;;;;;;1030259;28;20350;-74
2021/03/31 01:44:42;;;;;;;7.80;3.17;;;24.90;23.30;;;;;;1032809;28;20054;-73
2021/03/31 01:45:16;;;;;;;9.73;4.50;;;25.00;23.20;;;;;;1030087;28;20026;-73
2021/03/31 01:45:56;;;;;;;9.65;3.60;;;25.00;23.30;;;;;;1029500;28;20366;-74
2021/03/31 01:46:31;;;;;;;10.82;3.38;;;24.90;23.20;;;;;;1036732;28;20023;-74
2021/03/31 01:47:03;;;;;;;9.27;3.90;;;24.90;23.20;;;;;;1037891;28;20018;-74
2021/03/31 01:47:39;;;;;;;10.00;3.42;;;24.80;23.90;;;;;;1037919;28;20024;-73
2021/03/31 01:48:14;;;;;;;9.85;3.30;;;24.80;23.60;;;;;;1037800;28;20655;-73
2021/03/31 01:48:47;;;;;;;10.80;3.33;;;24.80;23.60;;;;;;1035705;28;20474;-73
2021/03/31 01:49:20;;;;;;;9.05;3.05;;;24.80;23.60;;;;;;1042316;28;20429;-73
2021/03/31 01:49:53;;;;;;;8.73;3.30;;;24.80;23.60;;;;;;1042286;28;20351;-74
2021/03/31 01:50:25;;;;;;;6.72;3.05;;;24.80;23.60;;;;;;1039054;28;20029;-73
2021/03/31 01:51:07;;;;;;;11.70;3.30;;;24.70;23.80;;;;;;1042048;28;20450;-74
2021/03/31 01:51:40;;;;;;;7.35;3.00;;;24.60;23.90;;;;;;1038139;28;20106;-74
2021/03/31 01:52:13;;;;;;;6.97;3.00;;;24.60;24.40;;;;;;1036382;28;20010;-73
2021/03/31 01:52:45;;;;;;;9.95;3.13;;;24.60;23.80;;;;;;1038544;28;20463;-73
2021/03/31 01:53:19;;;;;;;9.60;3.20;;;24.50;24.00;;;;;;1039527;28;20006;-75
2021/03/31 01:53:51;;;;;;;8.77;3.03;;;24.50;24.40;;;;;;1042058;28;20040;-73
2021/03/31 01:54:23;;;;;;;7.60;3.20;;;24.60;24.20;;;;;;1042827;28;20470;-74
2021/03/31 01:54:56;;;;;;;9.93;3.20;;;24.50;24.20;;;;;;1042684;28;20029;-74
2021/03/31 01:55:30;;;;;;;6.90;3.10;;;24.50;24.10;;;;;;1042653;28;20014;-73
2021/03/31 01:56:02;;;;;;;8.57;3.20;;;24.50;24.00;;;;;;1039935;28;20028;-73
2021/03/31 01:56:34;;;;;;;9.15;2.97;;;24.50;24.20;;;;;;1038468;28;20466;-74
2021/03/31 01:57:06;;;;;;;7.18;3.10;;;24.40;24.10;;;;;;1033872;28;20084;-73
2021/03/31 01:57:39;;;;;;;9.93;3.13;;;24.40;24.10;;;;;;1033735;28;20133;-74
2021/03/31 01:58:11;;;;;;;11.00;3.35;;;24.40;24.30;;;;;;1028115;28;20026;-73
2021/03/31 01:58:43;;;;;;;8.02;3.20;;;24.40;24.30;;;;;;1030398;28;20102;-73
2021/03/31 01:59:19;;;;;;;10.63;3.38;;;24.40;24.30;;;;;;1034295;28;20089;-73
2021/03/31 01:59:53;;;;;;;8.57;3.28;;;24.40;24.50;;;;;;1034804;28;20022;-73
2021/03/31 02:00:25;;;;;;;10.25;3.30;;;24.30;24.50;;;;;;1037651;28;20010;-74
2021/03/31 02:00:57;;;;;;;7.50;3.20;;;24.30;24.50;;;;;;1041818;28;20425;-73
2021/03/31 02:01:29;;;;;;;10.88;3.38;;;24.30;24.60;;;;;;1041348;28;20025;-73
2021/03/31 02:02:01;;;;;;;8.32;3.17;;;24.20;24.60;;;;;;1041617;28;20036;-73
2021/03/31 02:02:34;;;;;;;11.23;3.30;;;24.20;24.90;;;;;;1041674;28;20021;-73
2021/03/31 02:03:06;;;;;;;13.15;3.80;;;24.20;25.00;;;;;;1038232;28;20369;-73
2021/03/31 02:03:38;;;;;;;10.88;3.50;;;24.10;25.10;;;;;;1039088;28;20018;-73
2021/03/31 02:04:09;;;;;;;10.15;3.33;;;24.10;25.10;;;;;;1034266;28;20026;-73
2021/03/31 02:04:43;;;;;;;9.60;3.03;;;24.00;25.00;;;;;;1033145;28;20058;-73
2021/03/31 02:05:16;;;;;;;8.13;3.20;;;24.00;25.00;;;;;;1031008;28;20029;-73
2021/03/31 02:05:48;;;;;;;7.57;3.00;;;24.00;25.20;;;;;;1031762;28;20022;-73
2021/03/31 02:06:20;;;;;;;9.02;3.13;;;23.90;25.10;;;;;;1035233;28;20014;-73
2021/03/31 02:06:54;;;;;;;9.32;3.20;;;23.80;25.40;;;;;;1039070;28;20029;-73
2021/03/31 02:07:26;;;;;;;7.13;3.05;;;23.80;25.10;;;;;;1039374;28;20525;-75
2021/03/31 02:07:59;;;;;;;8.63;3.28;;;23.80;25.20;;;;;;1038516;28;20022;-73
2021/03/31 02:08:30;;;;;;;7.70;2.92;;;23.70;25.40;;;;;;1038433;28;20117;-73
2021/03/31 02:09:04;;;;;;;10.43;3.20;;;23.70;25.40;;;;;;1038372;28;20061;-73
2021/03/31 02:09:45;;;;;;;9.57;3.60;;;23.70;25.50;;;;;;1037888;28;20033;-73
2021/03/31 02:10:19;;;;;;;9.05;3.20;;;23.70;25.40;;;;;;1036331;28;20057;-73
2021/03/31 02:10:51;;;;;;;9.93;3.17;;;23.70;25.40;;;;;;1038182;28;20104;-73
2021/03/31 02:11:27;;;;;;;7.47;3.10;;;23.70;25.80;;;;;;1041271;28;20025;-73
2021/03/31 02:11:59;;;;;;;10.55;3.10;;;23.60;25.70;;;;;;1041137;28;20068;-73
2021/03/31 02:12:31;;;;;;;13.10;3.20;;;23.50;25.40;;;;;;1042565;28;20033;-73
2021/03/31 02:13:05;;;;;;;8.85;3.00;;;23.50;25.50;;;;;;1040339;28;20522;-73
2021/03/31 02:13:38;;;;;;;17.20;3.63;;;23.40;26.10;;;;;;1040838;28;20112;-74
2021/03/31 02:14:10;;;;;;;11.82;3.10;;;23.40;26.10;;;;;;1037488;28;20044;-73
2021/03/31 02:14:46;;;;;;;8.73;3.05;;;23.30;26.70;;;;;;1037879;28;20022;-73
2021/03/31 02:15:25;;;;;;;8.00;2.90;;;23.30;26.40;;;;;;1036938;28;20029;-73
2021/03/31 02:15:59;;;;;;;9.25;3.08;;;23.20;26.30;;;;;;1036181;28;20080;-73
2021/03/31 02:16:36;;;;;;;7.13;3.10;;;23.10;25.90;;;;;;1036327;28;20034;-73
2021/03/31 02:17:09;;;;;;;9.57;2.92;;;23.10;26.00;;;;;;1031203;28;20037;-73
2021/03/31 02:17:41;;;;;;;8.90;3.05;;;23.10;26.20;;;;;;1034942;28;20204;-73
2021/03/31 02:18:17;;;;;;;8.13;3.00;;;23.00;26.50;;;;;;1032040;28;20088;-74
2021/03/31 02:18:48;;;;;;;8.05;2.97;;;22.90;26.80;;;;;;1034152;28;20034;-73
2021/03/31 02:19:21;;;;;;;10.48;3.65;;;22.90;26.80;;;;;;1032916;28;20034;-73
2021/03/31 02:19:54;;;;;;;7.82;2.97;;;22.80;27.00;;;;;;1035617;28;20083;-74
2021/03/31 02:20:26;;;;;;;8.50;3.17;;;22.70;26.90;;;;;;1038180;28;20025;-73
2021/03/31 02:20:58;;;;;;;7.05;2.97;;;22.70;26.90;;;;;;1038219;28;20047;-72
2021/03/31 02:21:32;;;;;;;7.55;2.85;;;22.70;27.00;;;;;;1034222;28;20109;-74
2021/03/31 02:22:04;;;;;;;9.00;3.00;;;22.70;26.70;;;;;;1033895;28;20013;-73
2021/03/31 02:22:38;;;;;;;7.93;2.88;;;22.70;26.70;;;;;;1038527;28;20013;-75
2021/03/31 02:23:10;;;;;;;7.95;3.00;;;22.70;26.60;;;;;;1042264;28;20020;-74
2021/03/31 02:23:42;;;;;;;12.98;3.30;;;22.70;26.80;;;;;;1041866;28;20490;-74
2021/03/31 02:24:17;;;;;;;9.80;2.88;;;22.70;26.90;;;;;;1036643;28;20175;-74
2021/03/31 02:24:50;;;;;;;10.32;3.00;;;22.70;26.80;;;;;;1034075;28;20010;-77
2021/03/31 02:25:21;;;;;;;8.70;2.92;;;22.70;26.90;;;;;;1032338;28;20010;-75
2021/03/31 02:25:53;;;;;;;7.40;2.97;;;22.70;27.00;;;;;;1033267;28;20006;-75
2021/03/31 02:26:26;;;;;;;7.97;3.20;;;22.70;27.20;;;;;;1034538;28;20010;-74
2021/03/31 02:26:57;;;;;;;6.13;2.97;;;22.60;27.40;;;;;;1038441;28;20013;-74
2021/03/31 02:27:29;;;;;;;6.70;2.92;;;22.60;27.80;;;;;;1042906;28;20013;-73
2021/03/31 02:28:01;;;;;;;10.18;3.00;;;22.50;27.70;;;;;;1040561;28;20018;-75
2021/03/31 02:28:32;;;;;;;10.65;3.10;;;22.40;27.70;;;;;;1036199;28;20464;-75
2021/03/31 02:29:04;;;;;;;9.05;3.13;;;22.40;27.60;;;;;;1037931;28;20010;-74
2021/03/31 02:29:35;;;;;;;7.20;2.95;;;22.40;27.70;;;;;;1037239;28;20014;-73
2021/03/31 02:30:12;;;;;;;11.93;3.28;;;22.40;28.00;;;;;;1037906;28;20509;-73
2021/03/31 02:30:43;;;;;;;8.73;3.30;;;22.40;28.10;;;;;;1042104;28;20141;-74
2021/03/31 02:31:16;;;;;;;8.55;3.30;;;22.30;27.80;;;;;;1042282;28;20017;-73
2021/03/31 02:31:50;;;;;;;8.98;3.08;;;22.30;27.70;;;;;;1041832;28;20005;-74
2021/03/31 02:32:23;;;;;;;7.85;3.13;;;22.30;27.70;;;;;;1040301;28;20040;-73
2021/03/31 02:32:58;;;;;;;8.32;3.25;;;22.30;27.70;;;;;;1038912;28;20049;-75
2021/03/31 02:33:30;;;;;;;8.95;3.00;;;22.30;27.90;;;;;;1037927;28;20049;-73
2021/03/31 02:34:04;;;;;;;9.07;3.13;;;22.20;28.10;;;;;;1039433;28;20025;-74
2021/03/31 02:34:37;;;;;;;6.50;2.90;;;22.20;28.40;;;;;;1042523;28;20021;-73
2021/03/31 02:35:09;;;;;;;8.70;3.00;;;22.20;27.90;;;;;;1040026;28;20013;-73
2021/03/31 02:35:42;;;;;;;11.57;3.15;;;22.20;27.80;;;;;;1040372;28;20013;-74
2021/03/31 02:36:14;;;;;;;9.38;3.25;;;22.20;27.80;;;;;;1039390;28;20098;-74
2021/03/31 02:36:47;;;;;;;8.82;2.90;;;22.10;27.90;;;;;;1037498;28;20352;-74
2021/03/31 02:37:20;;;;;;;8.40;3.20;;;22.10;28.10;;;;;;1037954;28;20354;-73
2021/03/31 02:37:58;;;;;;;8.23;3.22;;;22.10;28.20;;;;;;1038626;28;20018;-73
2021/03/31 02:38:31;;;;;;;7.82;3.15;;;21.90;28.50;;;;;;1041095;28;20014;-73
2021/03/31 02:39:04;;;;;;;10.65;3.08;;;21.90;28.70;;;;;;1040498;28;20021;-74
2021/03/31 02:39:37;;;;;;;13.55;3.10;;;21.80;28.60;;;;;;1042444;28;20021;-73
2021/03/31 02:40:11;;;;;;;7.10;3.17;;;21.80;28.90;;;;;;1038712;28;20010;-74
2021/03/31 02:40:46;;;;;;;5.85;2.80;;;21.70;29.00;;;;;;1037864;28;20510;-74
2021/03/31 02:41:19;;;;;;;7.43;2.88;;;21.60;28.80;;;;;;1040464;28;20017;-72
2021/03/31 02:41:54;;;;;;;7.95;2.85;;;21.50;28.60;;;;;;1042053;28;20060;-72
2021/03/31 02:42:26;;;;;;;10.63;3.10;;;21.40;28.70;;;;;;1041966;28;20081;-71
2021/03/31 02:43:00;;;;;;;9.93;3.10;;;21.40;28.50;;;;;;1041402;28;20159;-73
2021/03/31 02:43:33;;;;;;;9.13;3.22;;;21.40;28.60;;;;;;1033371;28;20026;-72
2021/03/31 02:44:06;;;;;;;8.77;3.13;;;21.30;28.70;;;;;;1033786;28;20030;-75
2021/03/31 02:44:49;;;;;;;12.32;3.17;;;21.20;28.50;;;;;;1030035;28;20030;-74
2021/03/31 02:45:23;;;;;;;7.78;3.15;;;21.10;28.70;;;;;;1030066;28;20381;-73
2021/03/31 02:45:56;;;;;;;7.93;3.25;;;21.10;28.50;;;;;;1033829;28;20010;-73
2021/03/31 02:46:29;;;;;;;5.95;2.58;;;21.00;28.60;;;;;;1037144;28;20068;-73
2021/03/31 02:47:04;;;;;;;9.82;3.13;;;21.00;28.80;;;;;;1040268;28;20418;-73
2021/03/31 02:47:40;;;;;;;9.45;3.13;;;20.90;28.60;;;;;;1041388;28;20118;-72
2021/03/31 02:48:15;;;;;;;9.07;2.95;;;20.90;28.40;;;;;;1041028;28;20831;-73
2021/03/31 02:48:49;;;;;;;8.75;2.80;;;20.80;28.40;;;;;;1038840;28;20021;-73
2021/03/31 02:49:25;;;;;;;10.13;3.10;;;20.80;28.40;;;;;;1037594;28;20025;-74
2021/03/31 02:50:03;;;;;;;9.07;3.10;;;20.70;28.60;;;;;;1042399;28;20032;-74
2021/03/31 02:50:36;;;;;;;9.20;3.20;;;20.70;28.80;;;;;;1041537;28;20059;-74
2021/03/31 02:51:08;;;;;;;8.68;3.35;;;20.70;28.90;;;;;;1040625;28;20060;-74
2021/03/31 02:51:40;;;;;;;12.27;3.55;;;20.60;28.70;;;;;;1038004;28;20029;-73
2021/03/31 02:52:13;;;;;;;6.22;2.80;;;20.60;28.50;;;;;;1038337;28;20360;-74
2021/03/31 02:52:46;;;;;;;9.23;3.10;;;20.60;29.20;;;;;;1037090;28;20064;-73
2021/03/31 02:53:18;;;;;;;7.25;3.00;;;20.60;28.80;;;;;;1038464;28;20034;-73
2021/03/31 02:53:50;;;;;;;8.80;3.15;;;20.60;28.70;;;;;;1041291;28;20053;-73
2021/03/31 02:54:23;;;;;;;10.02;3.30;;;20.50;28.60;;;;;;1037558;28;20099;-74
2021/03/31 02:54:55;;;;;;;12.02;3.33;;;20.50;28.70;;;;;;1037406;28;20022;-73
2021/03/31 02:55:27;;;;;;;8.98;2.85;;;20.40;28.70;;;;;;1034995;28;20034;-75
2021/03/31 02:56:04;;;;;;;14.18;3.40;;;20.40;29.00;;;;;;1034406;28;20032;-73
2021/03/31 02:56:41;;;;;;;7.93;3.20;;;20.40;29.00;;;;;;1034152;28;20060;-75
2021/03/31 02:57:12;;;;;;;10.25;3.22;;;20.30;29.50;;;;;;1032350;28;20026;-74
2021/03/31 02:57:44;;;;;;;8.15;2.90;;;20.30;29.30;;;;;;1034985;28;20527;-75
2021/03/31 02:58:16;;;;;;;8.65;2.80;;;20.20;29.30;;;;;;1037253;28;20091;-75
2021/03/31 02:58:49;;;;;;;8.50;3.00;;;20.20;29.30;;;;;;1038635;28;20026;-73
2021/03/31 02:59:20;;;;;;;10.30;2.95;;;20.20;29.60;;;;;;1038905;28;20076;-73